Starship Express — WCZ3442 — position and weather

sailwx.info

Track history (hours):
 
Tides and Currents Weather Stations Pressure Air Temp Water Temp Dewpoint Dewpoint Depression Visibility Wind Speed Wind Dir Waves Ship Positions

Starship Express

Owner: CATALINA CHANNEL EXPRESS INC, SAN PEDRO, CA. More information available from US FCC via Universal Licensing System and Coast Guard Vessel Documentation Center.

Last reported at 2017-Sep-24 13:59 UTC. Time now 2017-Sep-24 14:09 UTC.
Position N 33°45' W 118°16'.

Length 41 m; draft 3 m.

Type: High speed craft. MMSI: 366768030.

Date/timePositionNaut miles runAvg speedWind from/ knotsBaromVisibWave heightAir tempDewpointWater temp
2017-Sep-24 13:59N 33°45' W 118°16'0 0.0
2017-Sep-24 13:26N 33°45' W 118°16'0 0.0
2017-Sep-24 12:59N 33°45' W 118°16'0 0.0
2017-Sep-24 01:52N 33°45' W 118°16'2 5.3
2017-Sep-24 01:30N 33°43' W 118°16'1624.8
2017-Sep-24 00:52N 33°27' W 118°18'7 7.9
2017-Sep-24 00:00N 33°21' W 118°19'4 7.5
2017-Sep-23 23:30N 33°24' W 118°18'1326.0
2017-Sep-23 23:00N 33°37' W 118°16'815.0
2017-Sep-23 22:29N 33°45' W 118°16'0 0.0
2017-Sep-23 21:53N 33°45' W 118°16'0 0.0
2017-Sep-23 21:23N 33°45' W 118°16'0 0.0
2017-Sep-23 20:59N 33°45' W 118°16'2 3.4
2017-Sep-23 20:31N 33°43' W 118°16'2325.5
2017-Sep-23 19:37N 33°21' W 118°19'  
2017-Sep-18 01:47N 33°45' W 118°16'2 6.3
2017-Sep-18 01:27N 33°43' W 118°16'17 8.9
2017-Sep-17 23:30N 33°26' W 118°18'1628.7
2017-Sep-17 22:56N 33°41' W 118°15'4 2.0
2017-Sep-17 21:05N 33°45' W 118°16'0 5.4
2017-Sep-17 21:00N 33°44' W 118°17'916.4
2017-Sep-17 20:29N 33°36' W 118°16'1413.4
2017-Sep-17 19:26N 33°22' W 118°20'23 1.3
2017-Sep-17 02:06N 33°45' W 118°16'0 0.3
2017-Sep-17 01:46N 33°45' W 118°16'2320.2
2017-Sep-17 00:37N 33°22' W 118°19'1 1.1
2017-Sep-16 23:38N 33°21' W 118°19'424.8
2017-Sep-16 23:28N 33°25' W 118°18'1428.7
2017-Sep-16 22:59N 33°39' W 118°15'6 2.7
2017-Sep-16 20:42N 33°45' W 118°16'1 6.5
2017-Sep-16 20:29N 33°43' W 118°16'2227.5
2017-Sep-16 19:41N 33°21' W 118°19'2015.1
2017-Sep-16 18:22N 33°41' W 118°15'  
Track history (hours):
 
Tides and Currents Weather Stations Pressure Air Temp Water Temp Dewpoint Dewpoint Depression Visibility Wind Speed Wind Dir Waves Ship Positions

Starship Express

Owner: CATALINA CHANNEL EXPRESS INC, SAN PEDRO, CA. More information available from US FCC via Universal Licensing System and Coast Guard Vessel Documentation Center.

Last reported at 2017-Sep-24 13:59 UTC. Time now 2017-Sep-24 14:09 UTC.
Position N 33°45' W 118°16'.

Length 41 m; draft 3 m.

Type: High speed craft. MMSI: 366768030.

Date/timePositionNaut miles runAvg speedWind from/ knotsBaromVisibWave heightAir tempDewpointWater temp
2017-Sep-24 13:59N 33°45' W 118°16'0 0.0
2017-Sep-24 13:26N 33°45' W 118°16'0 0.0
2017-Sep-24 12:59N 33°45' W 118°16'0 0.0
2017-Sep-24 01:52N 33°45' W 118°16'2 5.3
2017-Sep-24 01:30N 33°43' W 118°16'1624.8
2017-Sep-24 00:52N 33°27' W 118°18'7 7.9
2017-Sep-24 00:00N 33°21' W 118°19'4 7.5
2017-Sep-23 23:30N 33°24' W 118°18'1326.0
2017-Sep-23 23:00N 33°37' W 118°16'815.0
2017-Sep-23 22:29N 33°45' W 118°16'0 0.0
2017-Sep-23 21:53N 33°45' W 118°16'0 0.0
2017-Sep-23 21:23N 33°45' W 118°16'0 0.0
2017-Sep-23 20:59N 33°45' W 118°16'2 3.4
2017-Sep-23 20:31N 33°43' W 118°16'2325.5
2017-Sep-23 19:37N 33°21' W 118°19'  
2017-Sep-18 01:47N 33°45' W 118°16'2 6.3
2017-Sep-18 01:27N 33°43' W 118°16'17 8.9
2017-Sep-17 23:30N 33°26' W 118°18'1628.7
2017-Sep-17 22:56N 33°41' W 118°15'4 2.0
2017-Sep-17 21:05N 33°45' W 118°16'0 5.4
2017-Sep-17 21:00N 33°44' W 118°17'916.4
2017-Sep-17 20:29N 33°36' W 118°16'1413.4
2017-Sep-17 19:26N 33°22' W 118°20'23 1.3
2017-Sep-17 02:06N 33°45' W 118°16'0 0.3
2017-Sep-17 01:46N 33°45' W 118°16'2320.2
2017-Sep-17 00:37N 33°22' W 118°19'1 1.1
2017-Sep-16 23:38N 33°21' W 118°19'424.8
2017-Sep-16 23:28N 33°25' W 118°18'1428.7
2017-Sep-16 22:59N 33°39' W 118°15'6 2.7
2017-Sep-16 20:42N 33°45' W 118°16'1 6.5
2017-Sep-16 20:29N 33°43' W 118°16'2227.5
2017-Sep-16 19:41N 33°21' W 118°19'2015.1
2017-Sep-16 18:22N 33°41' W 118°15'  

Dump ship's entire track history